Time;durP1;ratioP1;P1;durP2;ratioP2;P2;SDS_P1;SDS_P2;PMS_P1;PMS_P2;Temp;Humidity;BMP_temperature;BMP_pressure;BME280_temperature;BME280_humidity;BME280_pressure;Samples;Min_cycle;Max_cycle;Signal;HPM_P1;HPM_P2
2023/09/26 00:00:13;;;;;;;17.50;13.70;;;;;;;17.28;100.00;99863.35;137574;1272;22250;-80
2023/09/26 00:03:35;;;;;;;20.90;13.30;;;;;;;17.25;100.00;99865.98;137015;1272;22352;-80
2023/09/26 00:06:36;;;;;;;17.30;13.60;;;;;;;17.24;100.00;99869.86;137027;1272;23669;-80
2023/09/26 00:09:38;;;;;;;15.40;13.20;;;;;;;17.24;100.00;99871.62;137505;1272;22555;-80
2023/09/26 00:12:39;;;;;;;17.60;14.30;;;;;;;17.24;100.00;99869.15;137226;1272;22581;-80
2023/09/26 00:15:40;;;;;;;19.40;14.90;;;;;;;17.24;100.00;99869.86;137032;1272;22187;-81
2023/09/26 00:18:42;;;;;;;19.30;14.60;;;;;;;17.24;100.00;99866.16;137167;1272;22545;-82
2023/09/26 00:21:47;;;;;;;16.40;14.30;;;;;;;17.23;100.00;99865.81;137481;1272;22430;-81
2023/09/26 00:24:48;;;;;;;37.60;15.40;;;;;;;17.22;100.00;99862.99;136979;1272;22194;-80
2023/09/26 00:27:49;;;;;;;23.50;14.90;;;;;;;17.21;100.00;99861.06;136946;1272;22918;-79
2023/09/26 00:30:50;;;;;;;21.00;15.10;;;;;;;17.22;100.00;99861.76;137762;1272;22159;-77
2023/09/26 00:33:53;;;;;;;16.40;14.70;;;;;;;17.22;100.00;99860.53;137036;1272;22235;-78
2023/09/26 00:36:56;;;;;;;19.10;14.30;;;;;;;17.20;100.00;99859.30;137112;1272;22146;-78
2023/09/26 00:39:57;;;;;;;18.70;14.50;;;;;;;17.19;100.00;99858.42;137537;1272;22539;-79
2023/09/26 00:42:59;;;;;;;22.50;14.90;;;;;;;17.19;100.00;99856.65;137263;1272;22421;-78
2023/09/26 00:46:00;;;;;;;21.00;15.70;;;;;;;17.20;100.00;99850.86;137140;1272;22187;-78
2023/09/26 00:49:01;;;;;;;17.60;15.40;;;;;;;17.18;100.00;99850.69;137318;1272;22551;-79
2023/09/26 00:52:02;;;;;;;21.50;15.90;;;;;;;17.17;100.00;99848.40;137436;1272;22612;-78
2023/09/26 00:55:05;;;;;;;21.70;16.00;;;;;;;17.15;100.00;99842.94;137092;1272;22557;-77
2023/09/26 00:58:07;;;;;;;20.60;15.80;;;;;;;17.14;100.00;99840.83;137047;1272;22573;-77
2023/09/26 01:01:08;;;;;;;18.10;15.10;;;;;;;17.12;100.00;99842.93;137640;1272;22160;-78
2023/09/26 01:04:09;;;;;;;18.90;15.20;;;;;;;17.11;100.00;99842.05;137109;1272;22423;-78
2023/09/26 01:07:10;;;;;;;23.90;15.70;;;;;;;17.12;100.00;99840.48;137069;1272;22212;-80
2023/09/26 01:10:11;;;;;;;19.50;15.80;;;;;;;17.12;100.00;99834.85;137660;1272;22217;-78
2023/09/26 01:13:15;;;;;;;23.80;16.10;;;;;;;17.12;100.00;99830.98;137052;1272;22214;-78
2023/09/26 01:16:16;;;;;;;38.00;16.60;;;;;;;17.11;100.00;99832.20;137153;1272;22141;-78
2023/09/26 01:19:17;;;;;;;23.10;17.40;;;;;;;17.10;100.00;99833.78;137524;1272;22531;-78
2023/09/26 01:22:18;;;;;;;21.00;15.60;;;;;;;17.10;100.00;99832.20;137368;1272;22543;-78
2023/09/26 01:25:19;;;;;;;24.90;17.00;;;;;;;17.10;100.00;99828.52;137795;1272;22403;-78
2023/09/26 01:28:20;;;;;;;20.70;16.30;;;;;;;17.10;100.00;99829.91;137470;1272;23263;-77
2023/09/26 01:31:21;;;;;;;22.90;16.00;;;;;;;17.12;100.00;99831.15;137614;1272;22242;-78
2023/09/26 01:34:22;;;;;;;21.90;16.20;;;;;;;17.13;100.00;99831.15;137744;1272;22678;-76
2023/09/26 01:37:23;;;;;;;22.30;16.40;;;;;;;17.14;100.00;99835.55;137218;1272;22592;-77
2023/09/26 01:40:25;;;;;;;22.70;17.30;;;;;;;17.15;100.00;99838.36;137768;1272;23361;-78
2023/09/26 01:43:26;;;;;;;22.50;15.80;;;;;;;17.14;100.00;99841.88;137077;1272;22994;-78
2023/09/26 01:46:30;;;;;;;20.80;17.40;;;;;;;17.13;100.00;99841.88;137143;1272;22063;-78
2023/09/26 01:49:31;;;;;;;24.00;17.00;;;;;;;17.14;100.00;99845.58;137701;1267;22537;-80
2023/09/26 01:52:35;;;;;;;78.80;22.90;;;;;;;17.15;100.00;99844.52;137204;1272;22543;-79
2023/09/26 01:55:36;;;;;;;32.00;17.20;;;;;;;17.15;100.00;99844.70;136978;1272;22720;-77
2023/09/26 01:58:38;;;;;;;26.50;18.10;;;;;;;17.15;100.00;99842.23;137574;1272;22541;-78
2023/09/26 02:01:39;;;;;;;26.40;17.70;;;;;;;17.14;100.00;99843.11;137425;1272;22732;-78
2023/09/26 02:04:40;;;;;;;26.40;18.40;;;;;;;17.14;100.00;99839.42;137173;1272;22201;-79
2023/09/26 02:07:41;;;;;;;24.00;17.50;;;;;;;17.15;100.00;99838.01;137096;1272;22530;-78
2023/09/26 02:10:42;;;;;;;25.00;18.00;;;;;;;17.13;100.00;99835.38;137651;1272;23220;-78
2023/09/26 02:13:43;;;;;;;27.70;19.50;;;;;;;17.09;100.00;99835.73;137368;1272;22256;-79
2023/09/26 02:16:44;;;;;;;26.20;19.60;;;;;;;17.13;100.00;99834.66;137264;1272;22540;-77
2023/09/26 02:19:45;;;;;;;25.80;19.40;;;;;;;18.05;100.00;99835.53;137750;1272;22681;-78
2023/09/26 02:22:46;;;;;;;27.70;19.20;;;;;;;19.12;100.00;99832.63;137643;1272;22596;-78
2023/09/26 02:25:48;;;;;;;27.90;19.10;;;;;;;19.94;100.00;99832.34;137583;1272;22267;-77
2023/09/26 02:28:50;;;;;;;28.70;19.00;;;;;;;19.86;100.00;99838.59;137604;1272;22461;-79
2023/09/26 02:31:51;;;;;;;26.50;18.70;;;;;;;19.25;100.00;99841.90;137169;1272;22214;-78
2023/09/26 02:34:52;;;;;;;25.00;17.40;;;;;;;18.80;100.00;99842.70;136995;1272;25287;-77
2023/09/26 02:37:53;;;;;;;25.10;18.60;;;;;;;18.46;100.00;99841.06;137736;1272;22108;-77
2023/09/26 02:40:54;;;;;;;99.40;24.40;;;;;;;18.21;100.00;99842.56;137692;1272;22944;-77
2023/09/26 02:43:55;;;;;;;29.10;19.80;;;;;;;18.01;100.00;99837.66;137702;1272;22785;-78
2023/09/26 02:46:57;;;;;;;51.70;20.60;;;;;;;17.88;100.00;99841.75;137180;1272;24237;-77
2023/09/26 02:49:58;;;;;;;124.80;24.70;;;;;;;17.75;100.00;99840.70;137590;1272;22234;-77
2023/09/26 02:52:59;;;;;;;29.60;20.50;;;;;;;17.68;100.00;99837.37;137617;1272;22208;-78
2023/09/26 02:56:00;;;;;;;29.10;21.40;;;;;;;17.63;100.00;99837.52;137127;1272;22724;-79
2023/09/26 02:59:01;;;;;;;57.10;23.10;;;;;;;17.58;100.00;99838.23;137774;1272;22281;-78
2023/09/26 03:02:02;;;;;;;27.50;20.60;;;;;;;17.53;100.00;99833.48;137076;1272;22252;-79
2023/09/26 03:05:04;;;;;;;32.30;20.90;;;;;;;17.49;100.00;99836.65;136950;1272;22206;-78
2023/09/26 03:08:06;;;;;;;25.70;20.50;;;;;;;17.45;100.00;99832.95;137584;1272;22541;-78
2023/09/26 03:11:07;;;;;;;31.70;20.60;;;;;;;17.43;100.00;99834.37;137257;1272;22453;-79
2023/09/26 03:14:08;;;;;;;27.90;21.40;;;;;;;17.41;100.00;99833.30;136928;1272;22210;-79
2023/09/26 03:17:10;;;;;;;28.50;21.20;;;;;;;17.37;100.00;99830.32;137332;1272;22658;-79
2023/09/26 03:20:15;;;;;;;34.40;21.00;;;;;;;17.34;100.00;99828.37;137411;1272;22225;-77
2023/09/26 03:23:16;;;;;;;33.40;20.80;;;;;;;17.31;100.00;99829.40;137061;1272;22299;-78
2023/09/26 03:26:19;;;;;;;34.70;20.90;;;;;;;17.27;100.00;99833.45;137014;1272;22507;-77
2023/09/26 03:29:20;;;;;;;40.50;21.60;;;;;;;17.25;100.00;99833.62;137717;1272;22776;-78
2023/09/26 03:32:21;;;;;;;30.20;22.10;;;;;;;17.23;100.00;99837.84;137137;1272;22409;-78
2023/09/26 03:35:22;;;;;;;31.60;22.70;;;;;;;17.22;100.00;99835.38;137233;1272;22539;-78
2023/09/26 03:38:23;;;;;;;31.60;21.80;;;;;;;17.20;100.00;99838.36;137753;1272;22339;-77
2023/09/26 03:41:25;;;;;;;81.80;25.90;;;;;;;17.20;100.00;99833.45;137120;1268;22497;-77
2023/09/26 03:44:26;;;;;;;32.80;21.70;;;;;;;17.21;100.00;99835.56;137141;1272;22290;-77
2023/09/26 03:47:27;;;;;;;42.00;22.00;;;;;;;17.23;100.00;99839.60;137823;1271;22311;-77
2023/09/26 03:50:28;;;;;;;30.40;21.90;;;;;;;17.19;100.00;99835.20;137728;1272;22208;-78
2023/09/26 03:53:30;;;;;;;31.10;22.70;;;;;;;17.18;100.00;99833.44;137031;1272;22387;-77
2023/09/26 03:56:31;;;;;;;30.20;21.70;;;;;;;17.18;100.00;99835.02;137457;1272;22567;-78
2023/09/26 03:59:33;;;;;;;32.10;21.80;;;;;;;17.41;100.00;99828.02;137587;1272;22311;-78
2023/09/26 04:02:35;;;;;;;31.80;22.40;;;;;;;17.96;100.00;99828.52;137716;1272;22233;-77
2023/09/26 04:05:36;;;;;;;33.90;21.80;;;;;;;18.36;100.00;99829.83;137230;1272;22550;-77
2023/09/26 04:08:39;;;;;;;30.60;21.80;;;;;;;18.67;100.00;99831.30;137747;1272;22258;-79
2023/09/26 04:11:41;;;;;;;46.70;23.10;;;;;;;18.93;100.00;99834.69;137420;1272;22420;-79
2023/09/26 04:14:42;;;;;;;27.90;21.40;;;;;;;19.16;100.00;99837.21;137037;1272;22580;-79
2023/09/26 04:17:43;;;;;;;50.00;22.60;;;;;;;19.29;100.00;99838.70;137773;1272;22323;-79
2023/09/26 04:20:44;;;;;;;52.60;22.90;;;;;;;19.41;100.00;99840.02;137743;1272;22761;-79
2023/09/26 04:23:45;;;;;;;28.00;20.40;;;;;;;19.42;100.00;99843.19;137741;1272;22176;-79
2023/09/26 04:26:47;;;;;;;140.60;31.30;;;;;;;19.37;100.00;99837.05;137637;1272;22540;-79
2023/09/26 04:29:51;;;;;;;32.30;20.80;;;;;;;19.44;100.00;99838.94;137270;1272;22695;-79
2023/09/26 04:32:52;;;;;;;43.00;21.30;;;;;;;19.60;100.00;99837.23;137227;1272;22682;-79
2023/09/26 04:35:53;;;;;;;35.60;21.50;;;;;;;19.81;100.00;99838.45;137529;1272;22452;-79
2023/09/26 04:38:55;;;;;;;36.30;20.50;;;;;;;19.97;100.00;99838.67;137417;1272;22230;-79
2023/09/26 04:41:56;;;;;;;60.50;23.30;;;;;;;20.12;100.00;99843.83;137044;1272;22256;-79
2023/09/26 04:44:57;;;;;;;27.70;19.80;;;;;;;20.18;100.00;99843.57;137706;1272;22327;-79
2023/09/26 04:47:58;;;;;;;27.10;20.00;;;;;;;20.21;100.00;99845.84;137674;1272;22390;-78
2023/09/26 04:50:59;;;;;;;37.40;21.30;;;;;;;20.24;100.00;99841.20;137711;1272;22612;-78
2023/09/26 04:54:02;;;;;;;35.00;20.50;;;;;;;20.18;100.00;99839.50;137698;1266;22222;-78
2023/09/26 04:57:06;;;;;;;34.00;20.50;;;;;;;20.11;100.00;99839.77;137676;1272;22798;-78
2023/09/26 05:00:08;;;;;;;36.40;21.70;;;;;;;20.21;100.00;99842.12;137669;1272;22221;-79
2023/09/26 05:03:09;;;;;;;55.80;36.40;;;;;;;20.34;100.00;99840.91;137105;1272;22540;-78
2023/09/26 05:06:12;;;;;;;190.60;38.50;;;;;;;20.27;100.00;99838.69;137415;1272;22443;-79
2023/09/26 05:09:14;;;;;;;42.50;22.10;;;;;;;20.14;100.00;99834.97;137272;1272;22659;-80
2023/09/26 05:12:15;;;;;;;94.20;25.00;;;;;;;20.05;100.00;99832.95;137702;1272;22633;-78
2023/09/26 05:15:16;;;;;;;57.90;22.80;;;;;;;19.96;100.00;99837.09;137779;1272;22273;-79
2023/09/26 05:18:17;;;;;;;50.90;24.00;;;;;;;19.89;100.00;99835.20;137712;1272;22265;-80
2023/09/26 05:21:18;;;;;;;42.20;22.40;;;;;;;19.98;100.00;99837.59;137731;1272;22239;-80
2023/09/26 05:24:22;;;;;;;92.80;64.10;;;;;;;20.10;100.00;99840.31;137732;1272;22644;-81
2023/09/26 05:27:25;;;;;;;37.60;27.70;;;;;;;20.04;100.00;99839.83;137667;1272;22663;-80
2023/09/26 05:30:26;;;;;;;29.80;21.70;;;;;;;20.04;100.00;99837.90;137707;1272;22329;-79
2023/09/26 05:33:27;;;;;;;35.60;22.50;;;;;;;19.97;100.00;99843.09;137692;1272;22891;-80
2023/09/26 05:36:29;;;;;;;83.00;23.80;;;;;;;19.93;100.00;99841.69;137638;1272;22658;-77
2023/09/26 05:39:30;;;;;;;30.20;20.80;;;;;;;19.90;100.00;99841.72;137711;1272;22237;-79
2023/09/26 05:42:31;;;;;;;35.20;19.80;;;;;;;19.89;100.00;99843.33;137701;1272;22169;-80
2023/09/26 05:45:32;;;;;;;32.50;21.20;;;;;;;19.70;100.00;99847.21;137695;1272;23212;-79
2023/09/26 05:48:34;;;;;;;83.10;52.90;;;;;;;19.86;100.00;99846.71;137666;1272;22331;-78
2023/09/26 05:51:35;;;;;;;423.60;50.90;;;;;;;20.05;100.00;99844.07;137419;1272;22300;-80
2023/09/26 05:54:36;;;;;;;39.50;22.70;;;;;;;20.01;100.00;99846.58;137650;1272;22082;-79
2023/09/26 05:57:38;;;;;;;32.70;21.80;;;;;;;19.94;100.00;99848.23;137662;1272;22659;-80
2023/09/26 06:00:40;;;;;;;49.50;21.70;;;;;;;19.93;100.00;99849.29;137683;1272;22214;-79
2023/09/26 06:03:41;;;;;;;39.50;21.60;;;;;;;19.89;100.00;99845.09;137652;1272;22442;-81
2023/09/26 06:06:42;;;;;;;43.60;21.10;;;;;;;19.83;100.00;99841.79;137640;1272;22751;-84
2023/09/26 06:09:43;;;;;;;36.00;20.70;;;;;;;19.80;100.00;99846.95;137694;1272;22207;-82
2023/09/26 06:12:44;;;;;;;45.10;21.70;;;;;;;19.69;100.00;99854.11;137688;1272;22363;-81
2023/09/26 06:15:46;;;;;;;30.50;20.70;;;;;;;19.97;100.00;99848.38;137698;1272;22199;-83
2023/09/26 06:18:47;;;;;;;37.90;21.80;;;;;;;20.11;100.00;99845.07;137169;1272;22481;-80
2023/09/26 06:21:49;;;;;;;31.00;20.50;;;;;;;20.06;100.00;99845.30;137767;1272;22207;-81
2023/09/26 06:24:50;;;;;;;54.80;32.80;;;;;;;19.54;100.00;99845.23;137620;1272;22891;-83
2023/09/26 06:27:51;;;;;;;41.40;24.90;;;;;;;19.32;100.00;99846.45;137389;1272;22250;-81
2023/09/26 06:30:53;;;;;;;34.60;22.10;;;;;;;19.32;100.00;99842.02;136962;1272;22263;-82
2023/09/26 06:34:00;;;;;;;33.20;21.50;;;;;;;19.44;100.00;99844.23;137622;1272;22262;-81
2023/09/26 06:37:05;;;;;;;30.20;21.30;;;;;;;19.35;100.00;99842.36;137088;1272;22522;-81
2023/09/26 06:40:06;;;;;;;36.90;21.10;;;;;;;19.38;100.00;99844.98;136968;1272;22967;-82
2023/09/26 06:43:07;;;;;;;30.30;22.10;;;;;;;19.41;100.00;99844.95;137658;1272;22452;-80
2023/09/26 06:46:08;;;;;;;31.00;20.50;;;;;;;19.45;100.00;99848.27;137158;1272;22230;-80
2023/09/26 06:49:10;;;;;;;33.70;21.70;;;;;;;19.46;100.00;99845.45;137315;1272;22259;-80
2023/09/26 06:52:12;;;;;;;48.90;25.60;;;;;;;19.65;100.00;99844.25;137717;1272;22067;-80
2023/09/26 06:55:13;;;;;;;46.20;24.70;;;;;;;20.01;100.00;99843.93;137608;1272;22227;-80
2023/09/26 06:58:14;;;;;;;33.10;23.30;;;;;;;20.28;100.00;99843.27;137294;1266;22190;-80
2023/09/26 07:01:17;;;;;;;38.50;22.20;;;;;;;20.49;100.00;99846.23;137512;1272;22563;-82
2023/09/26 07:04:18;;;;;;;34.90;24.40;;;;;;;20.58;100.00;99846.84;137426;1272;22246;-81
2023/09/26 07:07:20;;;;;;;40.20;21.70;;;;;;;20.31;100.00;99851.20;137488;1272;22420;-81
2023/09/26 07:10:24;;;;;;;41.20;21.80;;;;;;;20.19;100.00;99851.16;137710;1272;22110;-81
2023/09/26 07:13:25;;;;;;;67.30;21.60;;;;;;;20.33;100.00;99853.13;137514;1272;22286;-79
2023/09/26 07:16:26;;;;;;;43.80;20.20;;;;;;;20.49;100.00;99851.73;137523;1272;22552;-81
2023/09/26 07:19:27;;;;;;;34.40;19.10;;;;;;;20.51;100.00;99854.17;137440;1272;24179;-78
2023/09/26 07:22:29;;;;;;;29.50;18.00;;;;;;;20.60;100.00;99858.30;137533;1269;22220;-77
2023/09/26 07:25:30;;;;;;;40.70;18.90;;;;;;;20.59;100.00;99856.73;137681;1267;22207;-77
2023/09/26 07:28:31;;;;;;;60.10;19.70;;;;;;;20.74;100.00;99856.70;137680;1272;22263;-77
2023/09/26 07:31:33;;;;;;;32.10;18.10;;;;;;;20.82;100.00;99858.23;137621;1272;22699;-78
2023/09/26 07:34:34;;;;;;;65.90;36.90;;;;;;;20.90;100.00;99860.59;137689;1272;22289;-78
2023/09/26 07:37:35;;;;;;;347.40;43.40;;;;;;;20.90;100.00;99858.63;137712;1272;22230;-78
2023/09/26 07:40:37;;;;;;;78.40;22.10;;;;;;;20.66;100.00;99860.53;137662;1272;22111;-79
2023/09/26 07:43:38;;;;;;;103.30;24.10;;;;;;;20.45;100.00;99862.02;137646;1272;22267;-79
2023/09/26 07:46:39;;;;;;;39.30;18.40;;;;;;;20.24;100.00;99861.35;137705;1272;22285;-80
2023/09/26 07:49:40;;;;;;;45.50;19.90;;;;;;;20.29;100.00;99858.81;137734;1272;22111;-80
2023/09/26 07:52:42;;;;;;;83.20;22.50;;;;;;;20.28;100.00;99859.37;137563;1272;22411;-81
2023/09/26 07:55:45;;;;;;;25.60;18.50;;;;;;;20.41;100.00;99858.55;137744;1272;22866;-81
2023/09/26 07:58:46;;;;;;;46.40;18.60;;;;;;;20.43;100.00;99856.39;137465;1272;22462;-80
2023/09/26 08:01:47;;;;;;;34.20;18.50;;;;;;;20.24;100.00;99857.30;137621;1272;22449;-80
2023/09/26 08:04:48;;;;;;;45.70;18.70;;;;;;;20.28;100.00;99854.06;137731;1272;22335;-81
2023/09/26 08:07:49;;;;;;;36.00;17.50;;;;;;;20.36;100.00;99855.02;136921;1272;22521;-78
2023/09/26 08:10:50;;;;;;;32.20;19.00;;;;;;;20.26;100.00;99857.10;137637;1272;22170;-79
2023/09/26 08:13:52;;;;;;;30.40;18.90;;;;;;;20.22;100.00;99857.14;137728;1272;22255;-80
2023/09/26 08:16:53;;;;;;;30.50;18.50;;;;;;;20.25;100.00;99859.57;137697;1272;22256;-78
2023/09/26 08:19:54;;;;;;;41.20;19.70;;;;;;;20.21;100.00;99857.14;137728;1272;22119;-80
2023/09/26 08:22:55;;;;;;;29.90;18.50;;;;;;;20.34;100.00;99855.41;137576;1272;22568;-80
2023/09/26 08:25:56;;;;;;;67.00;21.00;;;;;;;20.52;100.00;99862.47;137685;1272;22220;-78
2023/09/26 08:28:57;;;;;;;41.50;19.70;;;;;;;20.66;100.00;99865.48;137372;1272;23022;-81
2023/09/26 08:31:59;;;;;;;141.00;30.30;;;;;;;20.60;100.00;99865.91;137449;1272;23083;-80
2023/09/26 08:35:04;;;;;;;71.70;25.20;;;;;;;20.50;100.00;99869.75;137020;1266;22193;-81
2023/09/26 08:38:05;;;;;;;47.90;21.80;;;;;;;20.66;100.00;99868.84;137683;1272;22060;-79
2023/09/26 08:41:06;;;;;;;53.80;22.30;;;;;;;20.79;100.00;99866.39;137695;1272;22296;-79
2023/09/26 08:44:08;;;;;;;59.40;21.60;;;;;;;20.82;100.00;99863.35;137706;1272;22220;-81
2023/09/26 08:47:09;;;;;;;52.80;22.70;;;;;;;20.71;100.00;99866.48;136835;1272;22241;-80
2023/09/26 08:50:10;;;;;;;49.80;22.90;;;;;;;20.70;100.00;99862.08;137670;1272;22676;-83
2023/09/26 08:53:13;;;;;;;54.00;22.20;;;;;;;20.82;100.00;99860.16;137132;1272;22294;-83
2023/09/26 08:56:17;;;;;;;39.90;20.80;;;;;;;20.85;100.00;99856.77;137260;1272;22241;-82
2023/09/26 08:59:22;;;;;;;32.80;19.60;;;;;;;20.93;100.00;99860.91;137622;1272;22585;-86
2023/09/26 09:02:24;;;;;;;30.60;19.30;;;;;;;21.13;100.00;99857.77;137271;1272;22346;-83
2023/09/26 09:05:25;;;;;;;42.30;21.70;;;;;;;21.15;100.00;99854.39;137546;1272;22308;-84
2023/09/26 09:08:27;;;;;;;34.10;19.90;;;;;;;21.18;100.00;99853.64;137430;1266;22719;-82
2023/09/26 09:11:28;;;;;;;46.50;20.10;;;;;;;21.18;100.00;99854.16;137335;1272;22194;-82
2023/09/26 09:14:30;;;;;;;42.80;20.10;;;;;;;21.28;100.00;99852.98;137544;1272;22227;-83
2023/09/26 09:17:31;;;;;;;78.80;20.90;;;;;;;21.43;100.00;99850.78;137546;1272;22621;-83
2023/09/26 09:20:32;;;;;;;77.50;20.10;;;;;;;21.39;100.00;99849.27;137433;1272;22217;-82
2023/09/26 09:23:35;;;;;;;49.10;23.50;;;;;;;21.17;100.00;99851.01;137297;1272;22564;-82
2023/09/26 09:26:36;;;;;;;74.00;23.30;;;;;;;21.14;100.00;99852.63;137475;1272;22517;-83
2023/09/26 09:29:37;;;;;;;52.80;20.00;;;;;;;21.31;100.00;99852.05;137075;1272;22559;-85
2023/09/26 09:32:39;;;;;;;48.20;18.70;;;;;;;21.37;100.00;99855.14;137567;1272;22873;-82
2023/09/26 09:35:40;;;;;;;40.20;18.40;;;;;;;21.45;100.00;99855.72;137720;1272;22315;-85
2023/09/26 09:38:43;;;;;;;48.10;19.40;;;;;;;21.67;100.00;99856.25;137694;1272;22347;-85
2023/09/26 09:41:46;;;;;;;31.30;18.20;;;;;;;21.82;100.00;99855.65;137657;1272;22731;-83
2023/09/26 09:44:47;;;;;;;49.40;18.30;;;;;;;21.82;100.00;99850.15;135666;1272;2660148;-84
2023/09/26 09:47:48;;;;;;;34.70;18.50;;;;;;;21.99;100.00;99854.63;137720;1272;22068;-84
2023/09/26 09:50:52;;;;;;;;;;;;;;;22.17;100.00;99851.30;137745;1272;22385;-81
2023/09/26 09:53:53;;;;;;;47.00;17.80;;;;;;;22.22;100.00;99849.96;137667;1272;22190;-82
2023/09/26 09:56:55;;;;;;;45.70;19.30;;;;;;;22.15;100.00;99850.64;137711;1272;22263;-82
2023/09/26 09:59:58;;;;;;;39.20;18.00;;;;;;;22.10;100.00;99850.20;137702;1272;22317;-78
2023/09/26 10:03:00;;;;;;;46.20;18.50;;;;;;;22.27;100.00;99848.98;137678;1272;22214;-80
2023/09/26 10:06:02;;;;;;;43.30;19.00;;;;;;;22.54;100.00;99848.98;137688;1272;22301;-82
2023/09/26 10:09:04;;;;;;;53.10;23.00;;;;;;;22.55;100.00;99845.77;137716;1272;22231;-81
2023/09/26 10:12:05;;;;;;;40.00;21.10;;;;;;;22.79;100.00;99841.91;137716;1272;22214;-82
2023/09/26 10:15:09;;;;;;;33.90;18.70;;;;;;;23.03;100.00;99840.14;137470;1268;22230;-82
2023/09/26 10:18:10;;;;;;;34.30;17.80;;;;;;;23.37;100.00;99834.91;137675;1272;22226;-82
2023/09/26 10:21:12;;;;;;;29.80;17.10;;;;;;;23.59;100.00;99834.23;137509;1272;22546;-79
2023/09/26 10:24:13;;;;;;;35.30;16.90;;;;;;;23.82;100.00;99830.61;137569;1272;22230;-81
2023/09/26 10:27:14;;;;;;;36.50;16.70;;;;;;;23.92;100.00;99826.26;137664;1272;22227;-80
2023/09/26 10:30:15;;;;;;;85.30;18.10;;;;;;;23.96;100.00;99830.58;137700;1272;22220;-80
2023/09/26 10:33:16;;;;;;;51.50;16.40;;;;;;;24.06;100.00;99826.56;137667;1272;22197;-81
2023/09/26 10:36:17;;;;;;;56.90;17.40;;;;;;;24.28;100.00;99821.02;137673;1272;22221;-80
2023/09/26 10:39:21;;;;;;;34.30;15.70;;;;;;;24.36;100.00;99821.16;137682;1272;22362;-81
2023/09/26 10:42:22;;;;;;;24.50;15.50;;;;;;;24.42;100.00;99818.87;137453;1272;22376;-81
2023/09/26 10:45:23;;;;;;;22.80;13.80;;;;;;;24.29;100.00;99816.00;137657;1272;22362;-80
2023/09/26 10:48:25;;;;;;;37.50;15.30;;;;;;;24.01;100.00;99808.23;137648;1272;22593;-79
2023/09/26 10:51:26;;;;;;;25.90;14.30;;;;;;;24.12;100.00;99808.81;137664;1272;22083;-78
2023/09/26 10:54:28;;;;;;;21.80;13.50;;;;;;;24.05;100.00;99807.56;137670;1272;22209;-78
2023/09/26 10:57:29;;;;;;;22.30;14.40;;;;;;;23.89;100.00;99802.69;137658;1272;22787;-78
2023/09/26 11:00:30;;;;;;;45.60;16.30;;;;;;;23.99;100.00;99802.61;137709;1272;22285;-79
2023/09/26 11:03:32;;;;;;;24.60;13.80;;;;;;;24.02;100.00;99800.36;137685;1271;22169;-78
2023/09/26 11:06:33;;;;;;;31.80;14.80;;;;;;;24.02;100.00;99797.88;137114;1272;22264;-78
2023/09/26 11:09:35;;;;;;;26.80;14.70;;;;;;;23.90;100.00;99798.05;137385;1272;22250;-82
2023/09/26 11:12:36;;;;;;;26.80;14.70;;;;;;;23.95;100.00;99799.51;137707;1272;22186;-79
2023/09/26 11:15:37;;;;;;;156.40;25.20;;;;;;;23.93;100.00;99803.47;137667;1272;22267;-79
2023/09/26 11:18:38;;;;;;;87.60;20.70;;;;;;;24.02;100.00;99799.85;137566;1272;22402;-78
2023/09/26 11:21:39;;;;;;;84.00;18.40;;;;;;;24.05;100.00;99795.83;137656;1272;22280;-79
2023/09/26 11:24:40;;;;;;;23.00;14.90;;;;;;;23.99;100.00;99796.02;137633;1272;22233;-79
2023/09/26 11:27:42;;;;;;;90.00;21.90;;;;;;;23.76;100.00;99800.38;137700;1272;22225;-81
2023/09/26 11:30:43;;;;;;;223.10;28.70;;;;;;;23.77;100.00;99794.30;137669;1272;22258;-79
2023/09/26 11:33:44;;;;;;;23.70;15.40;;;;;;;23.83;100.00;99793.96;137659;1272;22209;-79
2023/09/26 11:36:45;;;;;;;33.30;16.60;;;;;;;23.74;100.00;99790.47;137691;1271;22186;-79
2023/09/26 11:39:46;;;;;;;31.90;15.20;;;;;;;23.79;100.00;99787.49;137704;1272;22422;-78
2023/09/26 11:42:50;;;;;;;27.20;14.90;;;;;;;23.88;100.00;99780.52;137614;1272;22175;-78
2023/09/26 11:45:51;;;;;;;29.80;16.10;;;;;;;23.89;100.00;99782.61;137668;1272;23188;-78
2023/09/26 11:48:52;;;;;;;23.10;15.90;;;;;;;23.95;100.00;99782.24;137668;1272;22233;-79
2023/09/26 11:51:53;;;;;;;23.70;16.00;;;;;;;23.97;100.00;99781.31;137737;1272;22165;-80
2023/09/26 11:54:55;;;;;;;144.40;24.80;;;;;;;23.99;100.00;99781.27;137666;1272;22216;-78
2023/09/26 11:57:56;;;;;;;24.00;15.50;;;;;;;24.02;100.00;99779.77;137704;1272;22978;-80
2023/09/26 12:00:57;;;;;;;26.90;15.50;;;;;;;24.20;100.00;99780.31;137726;1272;22269;-81
2023/09/26 12:03:59;;;;;;;17.70;14.30;;;;;;;24.22;100.00;99779.00;137720;1272;22200;-81
2023/09/26 12:07:00;;;;;;;21.10;15.80;;;;;;;24.30;100.00;99775.98;137716;1272;22246;-81
2023/09/26 12:10:01;;;;;;;30.20;17.80;;;;;;;24.37;100.00;99771.52;137650;1272;22133;-80
2023/09/26 12:13:06;;;;;;;55.60;17.90;;;;;;;24.35;100.00;99769.62;137589;1271;22274;-77
2023/09/26 12:16:07;;;;;;;22.30;15.50;;;;;;;24.36;100.00;99767.83;137625;1272;22201;-79
2023/09/26 12:19:09;;;;;;;61.90;17.40;;;;;;;24.37;100.00;99765.80;137659;1272;22220;-80
2023/09/26 12:22:10;;;;;;;113.30;24.50;;;;;;;24.40;100.00;99764.14;137634;1272;22180;-79
2023/09/26 12:25:11;;;;;;;35.60;17.30;;;;;;;24.36;100.00;99765.32;137709;1272;22948;-80
2023/09/26 12:28:13;;;;;;;31.10;16.80;;;;;;;24.38;100.00;99762.41;137676;1272;23109;-80
2023/09/26 12:31:14;;;;;;;27.90;17.20;;;;;;;24.43;100.00;99760.12;137671;1272;22251;-82
2023/09/26 12:34:15;;;;;;;32.20;17.20;;;;;;;24.49;100.00;99761.73;137662;1272;22347;-80
2023/09/26 12:37:16;;;;;;;19.80;15.30;;;;;;;24.56;100.00;99763.28;137708;1272;22278;-79
2023/09/26 12:40:17;;;;;;;24.80;14.60;;;;;;;24.55;100.00;99760.66;137708;1272;22805;-82
2023/09/26 12:43:18;;;;;;;42.10;17.70;;;;;;;24.58;100.00;99756.66;137694;1272;22179;-79
2023/09/26 12:46:19;;;;;;;32.60;15.30;;;;;;;24.57;100.00;99751.34;137667;1272;23181;-80
2023/09/26 12:49:21;;;;;;;27.10;14.20;;;;;;;24.52;100.00;99749.36;137654;1272;22079;-81
2023/09/26 12:52:26;;;;;;;31.40;16.00;;;;;;;24.49;100.00;99748.21;137726;1272;22853;-82
2023/09/26 12:55:27;;;;;;;21.60;15.10;;;;;;;24.61;100.00;99744.98;137626;1272;22669;-81
2023/09/26 12:58:29;;;;;;;28.80;16.30;;;;;;;24.73;100.00;99738.71;137711;1272;22341;-82
2023/09/26 13:01:31;;;;;;;24.80;15.70;;;;;;;24.83;100.00;99740.04;137704;1272;22179;-82
2023/09/26 13:04:32;;;;;;;16.70;14.00;;;;;;;24.88;100.00;99741.10;137726;1272;22344;-80
2023/09/26 13:07:33;;;;;;;27.50;15.30;;;;;;;24.89;100.00;99738.23;137736;1272;22198;-81
2023/09/26 13:10:35;;;;;;;27.50;16.10;;;;;;;24.94;100.00;99735.40;137710;1269;22084;-81
2023/09/26 13:13:36;;;;;;;22.60;15.10;;;;;;;25.05;100.00;99734.34;137701;1272;22240;-80
2023/09/26 13:16:37;;;;;;;43.10;18.20;;;;;;;25.06;100.00;99732.52;137684;1272;22820;-80
2023/09/26 13:19:38;;;;;;;27.00;15.80;;;;;;;25.09;100.00;99732.79;137657;1272;22512;-81
2023/09/26 13:22:39;;;;;;;27.40;16.20;;;;;;;25.11;100.00;99736.10;137706;1272;22918;-80
2023/09/26 13:25:40;;;;;;;30.50;17.10;;;;;;;25.09;100.00;99736.87;137684;1272;22189;-79
2023/09/26 13:28:41;;;;;;;33.00;16.40;;;;;;;25.13;100.00;99732.84;137668;1272;22120;-77
2023/09/26 13:31:45;;;;;;;30.20;16.20;;;;;;;25.14;100.00;99733.70;137631;1258;22248;-80
2023/09/26 13:34:47;;;;;;;30.70;16.70;;;;;;;25.12;100.00;99735.52;137715;1272;22335;-80